Time;durP1;ratioP1;P1;durP2;ratioP2;P2;SDS_P1;SDS_P2;PMS_P1;PMS_P2;Temp;Humidity;BMP_temperature;BMP_pressure;BME280_temperature;BME280_humidity;BME280_pressure;Samples;Min_cycle;Max_cycle;Signal;HPM_P1;HPM_P2
2024/01/26 00:00:47;;;;;;;8.80;4.60;;;;;;;3.26;100.00;99512.77;109477;1252;67031;-73
2024/01/26 00:03:34;;;;;;;11.40;4.00;;;;;;;3.28;100.00;99513.22;109434;1252;62406;-73
2024/01/26 00:06:00;;;;;;;11.10;4.80;;;;;;;3.29;100.00;99514.78;109484;1252;65065;-73
2024/01/26 00:08:27;;;;;;;8.40;5.60;;;;;;;3.29;100.00;99516.69;109447;1252;59040;-72
2024/01/26 00:10:53;;;;;;;10.70;4.70;;;;;;;3.30;100.00;99516.49;109299;1253;59100;-77
2024/01/26 00:13:20;;;;;;;11.10;4.70;;;;;;;3.30;100.00;99521.05;109514;1252;66982;-73
2024/01/26 00:15:47;;;;;;;14.60;5.30;;;;;;;3.31;100.00;99524.20;109482;1252;61121;-75
2024/01/26 00:18:13;;;;;;;10.30;5.20;;;;;;;3.32;100.00;99528.75;109526;1252;65027;-73
2024/01/26 00:20:40;;;;;;;14.10;6.10;;;;;;;3.33;100.00;99530.64;109276;1253;58991;-74
2024/01/26 00:23:06;;;;;;;10.30;4.60;;;;;;;3.37;100.00;99538.09;109529;1253;58924;-74
2024/01/26 00:25:33;;;;;;;18.50;5.80;;;;;;;3.39;100.00;99541.71;109447;1253;66964;-73
2024/01/26 00:27:59;;;;;;;17.10;5.30;;;;;;;3.41;100.00;99541.31;109284;1252;61109;-74
2024/01/26 00:30:26;;;;;;;13.50;4.50;;;;;;;3.42;100.00;99543.20;109455;1252;65058;-76
2024/01/26 00:32:54;;;;;;;18.60;6.10;;;;;;;3.45;100.00;99543.30;109463;1251;59355;-74
2024/01/26 00:35:20;;;;;;;15.30;5.40;;;;;;;3.46;100.00;99550.29;109018;1253;58934;-74
2024/01/26 00:37:47;;;;;;;13.90;5.00;;;;;;;3.47;100.00;99553.78;109492;1252;67123;-74
2024/01/26 00:40:13;;;;;;;11.00;4.60;;;;;;;3.47;100.00;99555.00;109497;1251;61199;-76
2024/01/26 00:42:40;;;;;;;12.80;3.70;;;;;;;3.48;100.00;99556.20;109256;1252;63726;-75
2024/01/26 00:45:07;;;;;;;11.70;3.50;;;;;;;3.50;100.00;99557.55;109448;1252;59083;-76
2024/01/26 00:47:35;;;;;;;10.30;3.70;;;;;;;3.51;100.00;99560.68;109264;1256;59439;-76
2024/01/26 00:50:01;;;;;;;7.80;2.90;;;;;;;3.53;100.00;99559.94;108739;1253;1002241;-76
2024/01/26 00:52:28;;;;;;;13.00;3.50;;;;;;;3.53;100.00;99561.52;109446;1253;61260;-74
2024/01/26 00:54:56;;;;;;;11.10;4.10;;;;;;;3.54;100.00;99566.59;109494;1252;64146;-75
2024/01/26 00:57:23;;;;;;;9.20;3.30;;;;;;;3.54;100.00;99563.27;109349;1253;59064;-75
2024/01/26 00:59:49;;;;;;;10.50;3.50;;;;;;;3.54;100.00;99567.09;109529;1252;59161;-78
2024/01/26 01:02:16;;;;;;;13.70;4.00;;;;;;;3.56;100.00;99572.34;109210;1252;67042;-75
2024/01/26 01:04:43;;;;;;;12.40;3.40;;;;;;;3.57;100.00;99570.03;109504;1251;60416;-76
2024/01/26 01:07:09;;;;;;;9.60;3.60;;;;;;;3.57;100.00;99571.23;109406;1253;65211;-76
2024/01/26 01:09:38;;;;;;;10.50;3.90;;;;;;;3.57;100.00;99574.06;109473;1252;59013;-75
2024/01/26 01:12:05;;;;;;;10.00;3.90;;;;;;;3.56;100.00;99577.42;109524;1252;59439;-77
2024/01/26 01:14:31;;;;;;;11.20;3.90;;;;;;;3.55;100.00;99579.36;109463;1252;66141;-77
2024/01/26 01:16:58;;;;;;;9.00;4.50;;;;;;;3.55;100.00;99579.39;109534;1252;59832;-74
2024/01/26 01:19:24;;;;;;;8.40;3.40;;;;;;;3.53;100.00;99583.11;109517;1252;65108;-76
2024/01/26 01:21:51;;;;;;;14.10;3.80;;;;;;;3.52;100.00;99585.59;109470;1252;58958;-77
2024/01/26 01:24:18;;;;;;;11.70;3.80;;;;;;;3.51;100.00;99583.86;109306;1251;59295;-77
2024/01/26 01:26:44;;;;;;;7.10;2.90;;;;;;;3.50;100.00;99582.15;109539;1253;66981;-77
2024/01/26 01:29:11;;;;;;;8.30;3.70;;;;;;;3.48;100.00;99584.48;109541;1251;60017;-76
2024/01/26 01:31:37;;;;;;;10.80;3.80;;;;;;;3.46;100.00;99589.27;109490;1252;64785;-77
2024/01/26 01:34:05;;;;;;;12.80;4.90;;;;;;;3.45;100.00;99587.73;109479;1252;58981;-75
2024/01/26 01:36:31;;;;;;;10.80;4.70;;;;;;;3.45;100.00;99586.69;109498;1252;58914;-76
2024/01/26 01:38:58;;;;;;;11.10;5.00;;;;;;;3.45;100.00;99590.02;109467;1251;67017;-77
2024/01/26 01:41:24;;;;;;;9.70;4.50;;;;;;;3.44;100.00;99583.01;109504;1252;60178;-77
2024/01/26 01:43:55;;;;;;;16.10;4.90;;;;;;;3.43;100.00;99579.88;109491;1253;65136;-76
2024/01/26 01:46:22;;;;;;;11.30;4.60;;;;;;;3.43;100.00;99579.90;109487;1252;59279;-78
2024/01/26 01:48:50;;;;;;;9.30;4.40;;;;;;;3.43;100.00;99577.80;109502;1252;59173;-76
2024/01/26 01:51:17;;;;;;;11.10;5.00;;;;;;;3.43;100.00;99571.27;109521;1253;66221;-77
2024/01/26 01:53:44;;;;;;;10.30;4.10;;;;;;;3.44;100.00;99571.77;109238;1253;61358;-75
2024/01/26 01:56:11;;;;;;;12.00;4.40;;;;;;;3.44;100.00;99574.94;109537;1251;65088;-76
2024/01/26 01:58:40;;;;;;;11.50;4.90;;;;;;;3.44;100.00;99579.14;109431;1253;58984;-76
2024/01/26 02:01:08;;;;;;;9.60;4.60;;;;;;;3.44;100.00;99577.40;109545;1251;59850;-76
2024/01/26 02:03:34;;;;;;;16.80;5.90;;;;;;;3.43;100.00;99575.14;109502;1253;66992;-76
2024/01/26 02:06:01;;;;;;;11.90;5.20;;;;;;;3.44;100.00;99576.54;109548;1252;60083;-76
2024/01/26 02:08:27;;;;;;;13.80;4.80;;;;;;;3.44;100.00;99575.98;109470;1252;64055;-76
2024/01/26 02:10:54;;;;;;;9.80;4.30;;;;;;;3.45;100.00;99570.52;109496;1252;59401;-78
2024/01/26 02:13:20;;;;;;;15.90;5.50;;;;;;;3.45;100.00;99570.88;109509;1252;59201;-76
2024/01/26 02:15:47;;;;;;;14.40;4.80;;;;;;;3.46;100.00;99576.65;109481;1253;67035;-76
2024/01/26 02:18:15;;;;;;;11.90;4.20;;;;;;;3.46;100.00;99576.48;108755;1253;1003070;-78
2024/01/26 02:20:42;;;;;;;11.70;4.40;;;;;;;3.45;100.00;99579.65;109512;1252;65091;-78
2024/01/26 02:23:09;;;;;;;9.80;4.00;;;;;;;3.44;100.00;99581.42;109505;1251;59010;-77
2024/01/26 02:25:35;;;;;;;8.40;3.40;;;;;;;3.45;100.00;99581.41;109511;1253;58978;-78
2024/01/26 02:28:02;;;;;;;10.80;3.90;;;;;;;3.48;100.00;99586.77;109470;1252;67053;-77
2024/01/26 02:30:33;;;;;;;12.70;4.10;;;;;;;3.50;100.00;99589.36;109533;1253;60174;-77
2024/01/26 02:33:00;;;;;;;12.50;4.30;;;;;;;3.49;100.00;99587.42;109293;1252;65172;-78
2024/01/26 02:35:26;;;;;;;15.30;4.20;;;;;;;3.48;100.00;99587.45;109488;1252;59371;-77
2024/01/26 02:37:53;;;;;;;14.80;4.20;;;;;;;3.47;100.00;99594.02;109549;1252;59051;-76
2024/01/26 02:40:19;;;;;;;11.50;4.40;;;;;;;3.45;100.00;99589.68;109532;1255;65981;-77
2024/01/26 02:42:46;;;;;;;14.50;7.10;;;;;;;3.43;100.00;99586.02;109278;1252;61082;-76
2024/01/26 02:45:13;;;;;;;14.60;7.10;;;;;;;3.41;100.00;99586.43;109455;1253;65231;-76
2024/01/26 02:47:39;;;;;;;12.60;6.40;;;;;;;3.40;100.00;99585.23;109479;1252;59351;-76
2024/01/26 02:50:07;;;;;;;16.20;5.50;;;;;;;3.40;100.00;99584.90;109286;1253;59029;-75
2024/01/26 02:52:33;;;;;;;11.20;4.80;;;;;;;3.40;100.00;99589.48;109222;1257;67263;-77
2024/01/26 02:55:00;;;;;;;12.40;4.50;;;;;;;3.39;100.00;99588.98;109060;1256;60164;-77
2024/01/26 02:57:26;;;;;;;13.50;5.40;;;;;;;3.38;100.00;99590.40;109078;1257;63743;-79
2024/01/26 02:59:53;;;;;;;13.10;5.20;;;;;;;3.38;100.00;99594.63;109216;1256;59035;-75
2024/01/26 03:02:19;;;;;;;11.80;3.70;;;;;;;3.36;100.00;99599.75;109194;1257;59091;-76
2024/01/26 03:04:46;;;;;;;7.90;2.80;;;;;;;3.37;100.00;99600.96;109249;1255;67157;-77
2024/01/26 03:07:13;;;;;;;11.30;4.30;;;;;;;3.37;100.00;99606.05;109258;1255;60156;-78
2024/01/26 03:09:39;;;;;;;9.90;3.80;;;;;;;3.37;100.00;99610.96;109217;1255;65056;-77
2024/01/26 03:12:06;;;;;;;7.90;3.20;;;;;;;3.36;100.00;99610.30;109219;1256;59318;-78
2024/01/26 03:14:32;;;;;;;13.00;3.70;;;;;;;3.36;100.00;99617.48;109226;1255;58914;-76
2024/01/26 03:16:59;;;;;;;7.60;3.80;;;;;;;3.37;100.00;99622.22;109241;1254;66084;-76
2024/01/26 03:19:26;;;;;;;8.00;3.20;;;;;;;3.36;100.00;99620.14;109211;1256;60014;-77
2024/01/26 03:21:53;;;;;;;10.30;3.50;;;;;;;3.34;100.00;99616.67;109241;1256;64049;-77
2024/01/26 03:24:19;;;;;;;8.90;2.90;;;;;;;3.33;100.00;99619.16;109037;1255;59009;-77
2024/01/26 03:26:46;;;;;;;9.80;3.10;;;;;;;3.31;100.00;99615.52;109227;1255;59078;-77
2024/01/26 03:29:12;;;;;;;11.20;2.70;;;;;;;3.29;100.00;99611.89;109219;1256;66964;-77
2024/01/26 03:31:39;;;;;;;14.80;3.40;;;;;;;3.29;100.00;99612.05;109501;1251;60031;-76
2024/01/26 03:34:05;;;;;;;5.40;2.40;;;;;;;3.29;100.00;99613.27;109252;1253;63962;-77
2024/01/26 03:36:32;;;;;;;9.40;2.40;;;;;;;3.29;100.00;99611.70;109256;1252;58963;-77
2024/01/26 03:38:59;;;;;;;7.50;2.30;;;;;;;3.28;100.00;99615.23;109506;1251;59112;-77
2024/01/26 03:41:25;;;;;;;8.00;3.00;;;;;;;3.28;100.00;99617.72;109484;1252;66025;-77
2024/01/26 03:43:52;;;;;;;5.90;3.20;;;;;;;3.27;100.00;99619.33;109526;1253;61380;-73
2024/01/26 03:46:20;;;;;;;9.80;3.40;;;;;;;3.26;100.00;99620.77;109287;1252;65252;-76
2024/01/26 03:48:47;;;;;;;10.10;3.50;;;;;;;3.25;100.00;99624.98;109059;1252;59256;-77
2024/01/26 03:51:14;;;;;;;7.80;3.50;;;;;;;3.24;100.00;99626.95;109317;1253;59134;-77
2024/01/26 03:53:41;;;;;;;13.80;4.20;;;;;;;3.23;100.00;99630.14;109244;1257;66991;-77
2024/01/26 03:56:07;;;;;;;7.10;3.60;;;;;;;3.22;100.00;99634.38;109337;1252;59116;-76
2024/01/26 03:58:34;;;;;;;9.30;3.90;;;;;;;3.21;100.00;99638.63;109295;1253;64622;-77
2024/01/26 04:01:00;;;;;;;16.10;3.60;;;;;;;3.19;100.00;99640.42;109447;1253;59356;-76
2024/01/26 04:03:27;;;;;;;17.70;4.60;;;;;;;3.19;100.00;99642.91;109510;1251;59013;-77
2024/01/26 04:05:54;;;;;;;10.90;3.90;;;;;;;3.18;100.00;99640.46;109543;1252;67249;-79
2024/01/26 04:08:20;;;;;;;10.70;3.40;;;;;;;3.17;100.00;99645.23;109366;1253;61380;-76
2024/01/26 04:10:47;;;;;;;8.90;3.20;;;;;;;3.15;100.00;99645.98;109478;1253;65031;-77
2024/01/26 04:13:13;;;;;;;11.70;3.70;;;;;;;3.13;100.00;99650.42;109475;1252;59198;-77
2024/01/26 04:15:40;;;;;;;9.00;3.60;;;;;;;3.13;100.00;99656.22;109491;1253;58911;-77
2024/01/26 04:18:06;;;;;;;11.60;3.80;;;;;;;3.12;100.00;99658.86;109495;1256;67149;-77
2024/01/26 04:20:33;;;;;;;12.00;4.10;;;;;;;3.12;100.00;99663.98;109511;1253;60185;-76
2024/01/26 04:22:59;;;;;;;9.40;3.90;;;;;;;3.12;100.00;99664.14;109530;1253;64181;-77
2024/01/26 04:25:26;;;;;;;9.70;4.30;;;;;;;3.11;100.00;99666.09;109516;1252;59236;-76
2024/01/26 04:27:53;;;;;;;7.40;4.80;;;;;;;3.11;100.00;99670.15;109488;1253;59849;-77
2024/01/26 04:30:20;;;;;;;10.50;4.70;;;;;;;3.10;100.00;99669.29;109499;1253;66148;-77
2024/01/26 04:32:46;;;;;;;12.90;5.00;;;;;;;3.10;100.00;99671.58;109184;1253;60997;-76
2024/01/26 04:35:13;;;;;;;10.70;5.20;;;;;;;3.10;100.00;99669.80;109182;1253;64554;-77
2024/01/26 04:37:39;;;;;;;10.40;5.70;;;;;;;3.10;100.00;99670.16;109244;1253;59218;-77
2024/01/26 04:40:07;;;;;;;9.40;5.00;;;;;;;3.09;100.00;99664.92;109514;1253;59089;-75
2024/01/26 04:42:34;;;;;;;9.40;4.70;;;;;;;3.08;100.00;99666.16;109500;1252;67020;-77
2024/01/26 04:45:02;;;;;;;10.90;4.20;;;;;;;3.08;100.00;99667.23;109508;1253;59799;-77
2024/01/26 04:47:29;;;;;;;10.00;4.80;;;;;;;3.06;100.00;99670.27;109464;1253;64072;-76
2024/01/26 04:49:55;;;;;;;12.80;5.90;;;;;;;3.06;100.00;99676.06;109489;1253;60185;-75
2024/01/26 04:52:22;;;;;;;11.70;4.40;;;;;;;3.06;100.00;99677.29;109519;1253;59046;-75
2024/01/26 04:54:48;;;;;;;10.90;5.30;;;;;;;3.05;100.00;99674.33;109483;1253;66998;-75
2024/01/26 04:57:15;;;;;;;15.20;6.10;;;;;;;3.05;100.00;99673.81;109238;1253;60722;-76
2024/01/26 04:59:42;;;;;;;10.50;5.10;;;;;;;3.04;100.00;99672.77;109518;1253;65319;-78
2024/01/26 05:02:08;;;;;;;9.50;4.50;;;;;;;3.03;100.00;99674.73;109479;1253;58951;-77
2024/01/26 05:04:35;;;;;;;10.60;5.60;;;;;;;3.02;100.00;99674.92;109460;1252;59120;-78
2024/01/26 05:07:02;;;;;;;11.20;5.40;;;;;;;3.02;100.00;99673.36;109499;1253;65750;-76
2024/01/26 05:09:28;;;;;;;10.60;5.00;;;;;;;3.01;100.00;99677.08;109548;1253;59216;-76
2024/01/26 05:11:55;;;;;;;13.00;6.80;;;;;;;3.01;100.00;99679.36;109515;1253;65378;-78
2024/01/26 05:14:22;;;;;;;13.10;6.90;;;;;;;3.02;100.00;99684.77;109452;1253;58992;-77
2024/01/26 05:16:49;;;;;;;15.50;7.10;;;;;;;3.02;100.00;99689.86;109476;1254;59089;-78
2024/01/26 05:19:15;;;;;;;13.60;6.50;;;;;;;3.02;100.00;99692.99;109484;1253;65979;-76
2024/01/26 05:21:42;;;;;;;10.90;6.20;;;;;;;3.02;100.00;99698.61;109492;1253;60017;-76
2024/01/26 05:24:09;;;;;;;17.20;6.20;;;;;;;3.03;100.00;99701.23;109468;1253;64065;-77
2024/01/26 05:26:39;;;;;;;16.60;7.10;;;;;;;3.03;100.00;99698.95;109471;1253;59018;-76
2024/01/26 05:29:08;;;;;;;15.00;6.40;;;;;;;3.03;100.00;99695.80;109284;1253;59075;-77
2024/01/26 05:31:35;;;;;;;17.00;6.30;;;;;;;3.03;100.00;99695.80;109474;1252;67018;-77
2024/01/26 05:34:02;;;;;;;13.00;5.80;;;;;;;3.02;100.00;99697.74;109473;1252;61015;-78
2024/01/26 05:36:28;;;;;;;12.70;5.80;;;;;;;3.02;100.00;99697.04;109513;1253;64043;-77
2024/01/26 05:38:55;;;;;;;13.20;5.70;;;;;;;3.02;100.00;99695.29;109452;1253;59007;-76
2024/01/26 05:41:21;;;;;;;13.50;5.50;;;;;;;3.01;100.00;99695.49;109243;1254;59365;-76
2024/01/26 05:43:48;;;;;;;16.40;5.80;;;;;;;3.00;100.00;99691.30;109506;1253;66963;-76
2024/01/26 05:46:15;;;;;;;17.50;7.10;;;;;;;2.99;100.00;99688.71;109232;1252;61233;-77
2024/01/26 05:48:44;;;;;;;16.90;7.50;;;;;;;2.98;100.00;99687.67;109443;1252;65147;-76
2024/01/26 05:51:12;;;;;;;15.80;8.60;;;;;;;2.97;100.00;99687.52;108713;1253;1002340;-77
2024/01/26 05:53:39;;;;;;;15.90;7.50;;;;;;;2.96;100.00;99689.48;109509;1254;59114;-77
2024/01/26 05:56:06;;;;;;;15.00;7.00;;;;;;;2.94;100.00;99699.00;109475;1253;65541;-76
2024/01/26 05:58:33;;;;;;;17.80;9.00;;;;;;;2.93;100.00;99699.74;109563;1252;61252;-76
2024/01/26 06:01:00;;;;;;;14.80;7.10;;;;;;;2.92;100.00;99707.99;109463;1254;65095;-77
2024/01/26 06:03:26;;;;;;;10.80;5.40;;;;;;;2.91;100.00;99712.95;109461;1252;58973;-79
2024/01/26 06:05:53;;;;;;;12.30;5.20;;;;;;;2.90;100.00;99713.50;109508;1254;59006;-76
2024/01/26 06:08:20;;;;;;;12.50;5.20;;;;;;;2.88;100.00;99712.66;109509;1253;66141;-78
2024/01/26 06:10:47;;;;;;;12.80;7.00;;;;;;;2.87;100.00;99712.52;109511;1253;61453;-75
2024/01/26 06:13:14;;;;;;;18.00;7.60;;;;;;;2.85;100.00;99716.05;109133;1254;62761;-78
2024/01/26 06:15:41;;;;;;;15.60;8.00;;;;;;;2.83;100.00;99716.46;109449;1253;58993;-77
2024/01/26 06:18:08;;;;;;;17.80;7.30;;;;;;;2.81;100.00;99721.08;109164;1253;59376;-80
2024/01/26 06:20:34;;;;;;;15.30;6.20;;;;;;;2.79;100.00;99721.82;109463;1252;67417;-78
2024/01/26 06:23:01;;;;;;;10.80;5.00;;;;;;;2.78;100.00;99717.47;109487;1253;61137;-77
2024/01/26 06:25:28;;;;;;;11.80;6.10;;;;;;;2.75;100.00;99710.70;109525;1253;64028;-76
2024/01/26 06:27:54;;;;;;;12.60;6.50;;;;;;;2.74;100.00;99709.66;109463;1253;59131;-77
2024/01/26 06:30:21;;;;;;;13.60;7.60;;;;;;;2.73;100.00;99708.80;109512;1252;59203;-76
2024/01/26 06:32:47;;;;;;;16.80;8.80;;;;;;;2.73;100.00;99708.10;109439;1253;65956;-77
2024/01/26 06:35:14;;;;;;;13.50;8.20;;;;;;;2.74;100.00;99707.91;109546;1252;60803;-77
2024/01/26 06:37:41;;;;;;;18.10;9.50;;;;;;;2.74;100.00;99709.85;109153;1253;62779;-77
2024/01/26 06:40:11;;;;;;;15.80;9.60;;;;;;;2.74;100.00;99715.46;109482;1254;58956;-77
2024/01/26 06:42:39;;;;;;;18.20;9.70;;;;;;;2.75;100.00;99713.67;109472;1252;59045;-76
2024/01/26 06:45:10;;;;;;;18.10;10.10;;;;;;;2.76;100.00;99718.39;109495;1253;67013;-77
2024/01/26 06:47:37;;;;;;;16.90;9.00;;;;;;;2.77;100.00;99719.93;109292;1253;60031;-78
2024/01/26 06:50:04;;;;;;;17.60;10.20;;;;;;;2.80;100.00;99722.31;109447;1254;65048;-78
2024/01/26 06:52:32;;;;;;;21.00;11.80;;;;;;;2.81;100.00;99724.40;109271;1253;59040;-75
2024/01/26 06:54:58;;;;;;;17.40;11.40;;;;;;;2.83;100.00;99727.02;109503;1253;59181;-77
2024/01/26 06:57:25;;;;;;;22.60;11.50;;;;;;;2.84;100.00;99728.20;109474;1253;67046;-77
2024/01/26 06:59:52;;;;;;;15.00;9.60;;;;;;;2.86;100.00;99730.09;109489;1253;60907;-77
2024/01/26 07:02:19;;;;;;;18.10;8.60;;;;;;;2.87;100.00;99736.56;109473;1254;64797;-78
2024/01/26 07:04:46;;;;;;;16.60;8.40;;;;;;;2.88;100.00;99736.19;109436;1254;59058;-77
2024/01/26 07:07:12;;;;;;;16.40;9.50;;;;;;;2.90;100.00;99736.30;109455;1253;59002;-77
2024/01/26 07:09:39;;;;;;;20.40;9.50;;;;;;;2.92;100.00;99739.59;109465;1256;66075;-77
2024/01/26 07:12:06;;;;;;;16.30;9.90;;;;;;;2.94;100.00;99740.25;109256;1253;60074;-77
2024/01/26 07:14:32;;;;;;;19.30;11.30;;;;;;;2.95;100.00;99738.65;109434;1254;65090;-77
2024/01/26 07:16:59;;;;;;;19.50;10.40;;;;;;;2.95;100.00;99739.00;109271;1254;59134;-78
2024/01/26 07:19:25;;;;;;;16.50;9.90;;;;;;;2.96;100.00;99740.19;108746;1253;1002151;-76
2024/01/26 07:21:52;;;;;;;25.10;11.80;;;;;;;2.98;100.00;99740.86;109412;1254;59196;-77
2024/01/26 07:24:18;;;;;;;18.80;9.50;;;;;;;3.01;100.00;99742.38;109463;1252;59062;-78
2024/01/26 07:26:46;;;;;;;20.30;9.70;;;;;;;3.04;100.00;99745.98;109454;1252;59139;-77
2024/01/26 07:29:12;;;;;;;18.50;9.30;;;;;;;3.08;100.00;99745.54;109453;1253;59006;-77
2024/01/26 07:31:41;;;;;;;16.90;9.30;;;;;;;3.12;100.00;99743.85;109483;1252;59008;-77
2024/01/26 07:34:08;;;;;;;16.80;9.00;;;;;;;3.18;100.00;99744.59;109479;1254;66132;-76
2024/01/26 07:36:36;;;;;;;22.10;10.80;;;;;;;3.22;100.00;99745.37;109452;1254;59897;-77
2024/01/26 07:39:05;;;;;;;16.30;11.30;;;;;;;3.26;100.00;99744.90;109450;1254;63919;-77
2024/01/26 07:41:32;;;;;;;18.80;11.10;;;;;;;3.32;100.00;99738.79;109452;1253;59073;-78
2024/01/26 07:43:59;;;;;;;22.90;11.50;;;;;;;3.37;100.00;99738.84;109445;1253;58861;-76
2024/01/26 07:46:27;;;;;;;20.10;11.10;;;;;;;3.41;100.00;99737.34;109233;1254;67078;-76
2024/01/26 07:48:54;;;;;;;22.70;11.80;;;;;;;3.44;100.00;99735.50;109445;1252;60999;-76
2024/01/26 07:51:20;;;;;;;21.50;12.70;;;;;;;3.49;100.00;99740.11;109285;1252;63881;-77
2024/01/26 07:53:47;;;;;;;24.60;13.00;;;;;;;3.52;100.00;99735.27;109422;1254;59106;-78
2024/01/26 07:56:14;;;;;;;23.90;13.20;;;;;;;3.56;100.00;99732.55;109457;1253;59378;-78
2024/01/26 07:58:40;;;;;;;23.10;12.90;;;;;;;3.62;100.00;99734.68;109445;1253;66008;-78
2024/01/26 08:01:08;;;;;;;25.00;14.30;;;;;;;3.64;100.00;99738.48;109459;1252;61213;-79
2024/01/26 08:03:35;;;;;;;22.60;14.20;;;;;;;3.68;100.00;99729.78;109296;1254;63217;-77
2024/01/26 08:06:01;;;;;;;29.80;16.60;;;;;;;3.72;100.00;99725.60;109449;1252;60109;-79
2024/01/26 08:08:28;;;;;;;23.30;16.30;;;;;;;3.77;100.00;99725.13;109444;1252;59038;-76
2024/01/26 08:10:57;;;;;;;28.00;15.40;;;;;;;3.83;100.00;99725.83;109490;1253;66951;-78
2024/01/26 08:13:23;;;;;;;28.40;13.50;;;;;;;3.88;100.00;99724.47;109397;1253;61249;-76
2024/01/26 08:15:50;;;;;;;19.80;12.10;;;;;;;3.91;100.00;99727.02;109452;1252;64072;-78
2024/01/26 08:18:16;;;;;;;21.50;10.50;;;;;;;3.94;100.00;99729.92;109361;1253;59033;-77
2024/01/26 08:20:43;;;;;;;24.40;9.60;;;;;;;3.98;100.00;99732.27;109471;1252;59063;-78
2024/01/26 08:23:10;;;;;;;19.50;9.70;;;;;;;4.02;100.00;99729.55;109321;1253;67014;-78
2024/01/26 08:25:36;;;;;;;20.90;9.90;;;;;;;4.06;100.00;99731.52;109498;1253;60247;-78
2024/01/26 08:28:03;;;;;;;22.00;8.30;;;;;;;4.11;100.00;99729.61;109443;1253;64011;-78
2024/01/26 08:30:30;;;;;;;17.40;8.80;;;;;;;4.15;100.00;99731.62;109417;1252;59008;-77
2024/01/26 08:32:56;;;;;;;18.50;10.00;;;;;;;4.20;100.00;99733.05;109311;1252;59049;-77
2024/01/26 08:35:23;;;;;;;21.50;10.60;;;;;;;4.26;100.00;99732.52;109454;1252;67226;-78
2024/01/26 08:37:50;;;;;;;23.10;11.90;;;;;;;4.32;100.00;99732.17;109448;1252;61125;-78
2024/01/26 08:40:17;;;;;;;20.10;10.60;;;;;;;4.37;100.00;99728.68;109432;1254;64087;-78
2024/01/26 08:42:44;;;;;;;21.80;11.70;;;;;;;4.42;100.00;99734.17;109424;1254;59434;-78
2024/01/26 08:45:11;;;;;;;19.50;10.00;;;;;;;4.46;100.00;99736.17;109419;1253;59035;-78
2024/01/26 08:47:38;;;;;;;18.70;9.70;;;;;;;4.50;100.00;99738.34;109432;1253;67338;-80
2024/01/26 08:50:05;;;;;;;19.00;8.20;;;;;;;4.53;100.00;99736.48;109441;1253;61133;-78
2024/01/26 08:52:32;;;;;;;21.70;10.10;;;;;;;4.53;100.00;99738.75;109432;1253;64787;-78
2024/01/26 08:54:58;;;;;;;18.00;9.10;;;;;;;4.55;100.00;99740.63;109192;1257;59042;-77
2024/01/26 08:57:25;;;;;;;16.00;8.60;;;;;;;4.61;100.00;99740.46;109195;1256;59290;-78
2024/01/26 08:59:52;;;;;;;23.10;9.90;;;;;;;4.68;100.00;99744.10;109202;1255;67215;-79
2024/01/26 09:02:18;;;;;;;20.50;11.50;;;;;;;4.76;100.00;99742.11;109158;1255;61178;-76
2024/01/26 09:04:45;;;;;;;21.30;11.00;;;;;;;4.84;100.00;99739.73;109216;1256;65117;-78
2024/01/26 09:07:11;;;;;;;21.80;11.00;;;;;;;4.93;100.00;99741.56;109006;1261;59105;-79
2024/01/26 09:09:38;;;;;;;17.50;10.20;;;;;;;4.98;100.00;99736.64;109225;1256;58899;-78
2024/01/26 09:12:05;;;;;;;20.80;10.30;;;;;;;4.99;100.00;99736.98;109169;1258;67058;-79
2024/01/26 09:14:32;;;;;;;17.60;8.60;;;;;;;4.98;100.00;99737.87;109225;1255;60135;-77
2024/01/26 09:17:00;;;;;;;15.30;8.70;;;;;;;5.00;100.00;99742.04;109210;1255;64281;-77
2024/01/26 09:19:27;;;;;;;19.10;9.50;;;;;;;4.99;100.00;99740.84;109181;1256;59011;-78
2024/01/26 09:21:53;;;;;;;18.50;9.30;;;;;;;5.01;100.00;99744.30;109206;1255;58922;-80
2024/01/26 09:24:20;;;;;;;16.60;9.60;;;;;;;5.03;100.00;99744.77;109193;1256;67096;-79
2024/01/26 09:26:47;;;;;;;15.80;8.80;;;;;;;5.08;100.00;99741.42;109386;1253;61168;-77
2024/01/26 09:29:14;;;;;;;16.50;9.20;;;;;;;5.10;100.00;99740.13;109464;1252;65036;-78
2024/01/26 09:31:41;;;;;;;17.10;8.70;;;;;;;5.09;100.00;99738.59;109389;1252;59074;-78
2024/01/26 09:34:08;;;;;;;14.60;8.70;;;;;;;5.05;100.00;99739.77;109412;1253;58890;-77
2024/01/26 09:36:34;;;;;;;14.60;7.70;;;;;;;5.05;100.00;99733.44;109449;1252;66948;-78
2024/01/26 09:39:01;;;;;;;17.10;8.10;;;;;;;5.09;100.00;99727.13;109455;1252;61123;-78
2024/01/26 09:41:28;;;;;;;12.40;7.90;;;;;;;5.13;100.00;99730.88;109302;1253;64885;-78
2024/01/26 09:43:55;;;;;;;14.90;7.60;;;;;;;5.16;100.00;99730.62;109374;1252;59201;-78
2024/01/26 09:46:21;;;;;;;20.00;9.10;;;;;;;5.16;100.00;99728.14;109343;1253;59082;-77
2024/01/26 09:48:53;;;;;;;16.90;8.70;;;;;;;5.19;100.00;99724.70;109442;1252;65739;-79
2024/01/26 09:51:22;;;;;;;13.80;7.70;;;;;;;5.19;100.00;99722.56;109374;1253;60285;-77
2024/01/26 09:53:53;;;;;;;14.40;6.30;;;;;;;5.18;100.00;99717.86;109402;1252;65290;-77
2024/01/26 09:56:21;;;;;;;13.60;6.60;;;;;;;5.23;100.00;99714.67;109280;1253;59046;-78
2024/01/26 09:58:47;;;;;;;8.60;4.70;;;;;;;5.32;100.00;99712.63;109432;1252;59015;-78
2024/01/26 10:01:21;;;;;;;12.20;4.90;;;;;;;5.42;100.00;99705.95;109224;1252;254244;-77
2024/01/26 10:03:50;;;;;;;10.20;5.60;;;;;;;5.49;100.00;99700.59;109438;1252;60994;-78
2024/01/26 10:06:17;;;;;;;10.60;4.90;;;;;;;5.60;100.00;99695.09;109419;1252;65060;-77
2024/01/26 10:08:43;;;;;;;12.80;5.00;;;;;;;5.77;100.00;99693.95;109440;1253;58972;-79
2024/01/26 10:11:10;;;;;;;11.10;4.70;;;;;;;5.88;100.00;99690.21;109387;1252;58964;-79
2024/01/26 10:13:37;;;;;;;12.00;5.00;;;;;;;5.98;100.00;99691.10;109358;1252;67019;-79
2024/01/26 10:16:07;;;;;;;9.00;4.30;;;;;;;6.09;100.00;99687.89;109432;1252;60164;-80
2024/01/26 10:18:44;;;;;;;12.50;4.20;;;;;;;6.08;100.00;99688.10;109433;1253;65073;-81
2024/01/26 10:21:12;;;;;;;7.80;3.90;;;;;;;6.12;100.00;99684.40;109440;1252;59080;-79
2024/01/26 10:23:39;;;;;;;13.20;5.70;;;;;;;6.17;100.00;99679.12;109430;1253;59027;-80
2024/01/26 10:26:06;;;;;;;8.80;4.20;;;;;;;6.19;100.00;99672.14;109394;1253;66039;-78
2024/01/26 10:28:33;;;;;;;10.30;4.70;;;;;;;6.22;100.00;99672.40;109436;1251;60168;-79
2024/01/26 10:31:00;;;;;;;10.10;4.50;;;;;;;6.22;100.00;99680.88;109460;1252;65182;-79
2024/01/26 10:33:30;;;;;;;11.50;4.90;;;;;;;6.13;100.00;99685.09;109378;1252;58984;-80
2024/01/26 10:35:59;;;;;;;10.70;5.50;;;;;;;6.07;100.00;99688.11;109438;1252;58993;-78
2024/01/26 10:38:28;;;;;;;13.60;8.40;;;;;;;6.02;100.00;99680.03;109305;1253;65677;-80
2024/01/26 10:41:04;;;;;;;14.20;9.40;;;;;;;5.89;100.00;99676.25;109391;1253;61106;-79
2024/01/26 10:43:31;;;;;;;17.40;11.20;;;;;;;5.82;100.00;99665.74;109291;1253;65151;-79
2024/01/26 10:46:02;;;;;;;16.80;10.90;;;;;;;5.81;100.00;99655.92;109407;1252;58985;-79
2024/01/26 10:48:30;;;;;;;21.00;12.70;;;;;;;5.84;100.00;99654.92;109270;1253;59056;-80
2024/01/26 10:50:57;;;;;;;15.90;11.80;;;;;;;5.83;100.00;99653.89;109418;1253;67020;-80
2024/01/26 10:53:24;;;;;;;18.30;11.20;;;;;;;5.76;100.00;99652.73;109418;1251;61108;-78
2024/01/26 10:55:51;;;;;;;18.10;11.60;;;;;;;5.64;100.00;99651.05;109478;1252;64866;-79
2024/01/26 10:58:18;;;;;;;18.40;10.80;;;;;;;5.59;100.00;99643.14;109450;1252;59054;-79
2024/01/26 11:00:45;;;;;;;19.40;11.50;;;;;;;5.58;100.00;99638.95;109421;1252;59118;-79
2024/01/26 11:03:12;;;;;;;19.80;11.40;;;;;;;5.61;100.00;99634.44;109429;1252;66010;-81
2024/01/26 11:05:39;;;;;;;14.50;10.30;;;;;;;5.69;100.00;99630.60;109179;1252;59741;-79
2024/01/26 11:08:17;;;;;;;17.40;10.00;;;;;;;5.80;100.00;99626.50;109449;1252;65056;-78
2024/01/26 11:10:46;;;;;;;16.50;9.00;;;;;;;5.91;100.00;99623.26;109448;1252;58988;-78
2024/01/26 11:13:15;;;;;;;19.00;8.50;;;;;;;5.97;100.00;99621.30;109433;1252;59076;-77
2024/01/26 11:15:43;;;;;;;13.20;6.90;;;;;;;5.99;100.00;99618.95;109461;1252;66112;-78